Time;durP1;ratioP1;P1;durP2;ratioP2;P2;SDS_P1;SDS_P2;PMS_P1;PMS_P2;Temp;Humidity;BMP_temperature;BMP_pressure;BME280_temperature;BME280_humidity;BME280_pressure;Samples;Min_cycle;Max_cycle;Signal;HPM_P1;HPM_P2
2023/03/24 00:01:09;;;;;;;6.57;6.28;;;;;;;;;;4189879;28;20091;-56
2023/03/24 00:03:30;;;;;;;26.02;14.07;;;;;;;;;;4189590;28;20063;-55
2023/03/24 00:05:57;;;;;;;8.23;7.60;;;;;;;;;;4190455;28;20390;-55
2023/03/24 00:08:17;;;;;;;7.80;7.18;;;;;;;;;;4190224;28;20048;-55
2023/03/24 00:10:39;;;;;;;8.80;8.30;;;;;;;;;;4190207;28;20048;-55
2023/03/24 00:13:00;;;;;;;8.85;8.18;;;;;;;;;;4190302;28;20098;-55
2023/03/24 00:15:22;;;;;;;8.65;8.25;;;;;;;;;;4190156;28;20227;-55
2023/03/24 00:17:44;;;;;;;12.63;11.40;;;;;;;;;;4190552;28;20259;-55
2023/03/24 00:20:13;;;;;;;30.90;20.38;;;;;;;;;;4190644;28;20570;-55
2023/03/24 00:22:35;;;;;;;10.55;9.65;;;;;;;;;;4190450;28;20047;-55
2023/03/24 00:24:55;;;;;;;8.25;7.47;;;;;;;;;;4189387;28;20081;-55
2023/03/24 00:27:16;;;;;;;6.53;6.15;;;;;;;;;;4189626;28;20108;-55
2023/03/24 00:29:37;;;;;;;6.65;6.25;;;;;;;;;;4189917;28;20107;-55
2023/03/24 00:31:56;;;;;;;6.95;6.45;;;;;;;;;;4190294;28;20063;-55
2023/03/24 00:34:17;;;;;;;6.93;6.60;;;;;;;;;;4189685;28;20039;-56
2023/03/24 00:36:37;;;;;;;6.50;6.38;;;;;;;;;;4190384;28;20044;-56
2023/03/24 00:38:57;;;;;;;6.53;6.32;;;;;;;;;;4190519;28;20052;-55
2023/03/24 00:41:18;;;;;;;6.68;6.22;;;;;;;;;;4189808;28;20047;-55
2023/03/24 00:43:39;;;;;;;6.78;6.57;;;;;;;;;;4188825;28;20078;-55
2023/03/24 00:46:00;;;;;;;7.80;7.40;;;;;;;;;;4189798;28;20266;-56
2023/03/24 00:48:23;;;;;;;8.27;7.53;;;;;;;;;;4190168;28;20113;-56
2023/03/24 00:50:51;;;;;;;7.20;6.78;;;;;;;;;;4188775;28;20055;-55
2023/03/24 00:53:14;;;;;;;6.93;6.60;;;;;;;;;;4189938;28;20052;-56
2023/03/24 00:55:36;;;;;;;6.85;6.75;;;;;;;;;;4189157;28;20051;-56
2023/03/24 00:57:59;;;;;;;7.93;7.50;;;;;;;;;;4189429;28;20083;-55
2023/03/24 01:00:24;;;;;;;6.63;6.43;;;;;;;;;;4189857;28;20048;-55
2023/03/24 01:02:47;;;;;;;7.03;6.60;;;;;;;;;;4189914;28;20078;-55
2023/03/24 01:05:07;;;;;;;7.50;7.13;;;;;;;;;;4190071;28;20040;-55
2023/03/24 01:07:28;;;;;;;7.85;7.65;;;;;;;;;;4189890;28;20115;-55
2023/03/24 01:09:58;;;;;;;8.45;7.90;;;;;;;;;;4189888;28;20055;-55
2023/03/24 01:12:20;;;;;;;6.43;6.22;;;;;;;;;;4189957;28;20059;-55
2023/03/24 01:14:40;;;;;;;6.90;6.47;;;;;;;;;;4188877;28;20105;-56
2023/03/24 01:17:02;;;;;;;5.45;5.35;;;;;;;;;;4187871;28;20372;-55
2023/03/24 01:19:24;;;;;;;6.93;6.63;;;;;;;;;;4189181;28;20044;-56
2023/03/24 01:21:44;;;;;;;7.93;7.38;;;;;;;;;;4189936;28;20094;-56
2023/03/24 01:24:05;;;;;;;6.82;6.60;;;;;;;;;;4188808;28;20163;-56
2023/03/24 01:26:26;;;;;;;6.75;6.43;;;;;;;;;;4187774;28;20056;-56
2023/03/24 01:28:46;;;;;;;7.63;7.32;;;;;;;;;;4188979;28;20048;-55
2023/03/24 01:31:08;;;;;;;6.68;6.32;;;;;;;;;;4189853;28;20075;-55
2023/03/24 01:33:28;;;;;;;6.45;6.25;;;;;;;;;;4188548;28;20048;-55
2023/03/24 01:35:49;;;;;;;6.32;6.18;;;;;;;;;;4189512;28;20409;-56
2023/03/24 01:38:11;;;;;;;6.05;5.75;;;;;;;;;;4187935;28;20056;-55
2023/03/24 01:40:32;;;;;;;6.17;5.80;;;;;;;;;;4189721;28;20386;-55
2023/03/24 01:42:53;;;;;;;7.32;6.95;;;;;;;;;;4188207;28;20116;-55
2023/03/24 01:45:32;;;;;;;6.05;5.85;;;;;;;;;;4189561;28;20112;-56
2023/03/24 01:47:52;;;;;;;5.82;5.43;;;;;;;;;;4188401;28;20080;-56
2023/03/24 01:50:13;;;;;;;6.75;6.55;;;;;;;;;;4189571;28;20068;-56
2023/03/24 01:52:35;;;;;;;7.82;7.63;;;;;;;;;;4189073;28;20079;-56
2023/03/24 01:55:07;;;;;;;6.75;6.30;;;;;;;;;;4189218;28;20147;-55
2023/03/24 01:57:29;;;;;;;6.25;5.95;;;;;;;;;;4189276;28;20447;-55
2023/03/24 01:59:53;;;;;;;6.22;6.07;;;;;;;;;;4189490;28;20043;-55
2023/03/24 02:02:13;;;;;;;;;;;;;;;;;;4189854;28;20087;-57
2023/03/24 02:04:38;;;;;;;5.40;5.20;;;;;;;;;;4205255;23;19958;-58
2023/03/24 02:06:58;;;;;;;6.20;6.00;;;;;;;;;;4192850;28;20075;-58
2023/03/24 02:09:18;;;;;;;6.50;6.20;;;;;;;;;;4189891;28;20219;-58
2023/03/24 02:11:39;;;;;;;7.03;6.78;;;;;;;;;;4191416;28;20048;-57
2023/03/24 02:14:00;;;;;;;5.40;5.18;;;;;;;;;;4194102;28;20418;-57
2023/03/24 02:16:36;;;;;;;5.10;5.00;;;;;;;;;;4192912;28;20155;-57
2023/03/24 02:19:11;;;;;;;6.13;5.75;;;;;;;;;;4188774;28;20424;-58
2023/03/24 02:21:43;;;;;;;6.07;5.80;;;;;;;;;;4192736;28;20086;-58
2023/03/24 02:24:22;;;;;;;10.05;9.32;;;;;;;;;;4191438;28;20115;-59
2023/03/24 02:26:46;;;;;;;15.63;12.52;;;;;;;;;;4188860;28;20079;-58
2023/03/24 02:29:15;;;;;;;17.20;15.32;;;;;;;;;;4189122;28;20087;-58
2023/03/24 02:31:41;;;;;;;18.42;15.95;;;;;;;;;;4189429;28;20084;-58
2023/03/24 02:34:03;;;;;;;10.40;9.68;;;;;;;;;;4189045;28;20394;-58
2023/03/24 02:36:40;;;;;;;9.57;8.45;;;;;;;;;;4188233;28;20067;-58
2023/03/24 02:39:08;;;;;;;7.10;6.80;;;;;;;;;;4189322;28;20362;-58
2023/03/24 02:41:31;;;;;;;6.90;6.60;;;;;;;;;;4189864;28;20256;-58
2023/03/24 02:43:51;;;;;;;6.55;6.10;;;;;;;;;;4188041;28;20112;-58
2023/03/24 02:46:38;;;;;;;7.00;6.65;;;;;;;;;;4189838;28;20100;-58
2023/03/24 02:49:04;;;;;;;6.22;5.80;;;;;;;;;;4192212;28;20199;-58
2023/03/24 02:51:27;;;;;;;7.53;6.93;;;;;;;;;;4193869;28;20040;-58
2023/03/24 02:54:06;;;;;;;7.03;6.63;;;;;;;;;;4191916;28;20052;-57
2023/03/24 02:56:31;;;;;;;6.28;5.85;;;;;;;;;;4194335;28;20098;-57
2023/03/24 02:58:55;;;;;;;6.07;5.97;;;;;;;;;;4194480;28;20144;-58
2023/03/24 03:01:30;;;;;;;5.60;5.13;;;;;;;;;;4193292;28;20411;-58
2023/03/24 03:03:52;;;;;;;6.30;5.93;;;;;;;;;;4194287;28;20044;-58
2023/03/24 03:06:13;;;;;;;6.47;6.20;;;;;;;;;;4196452;28;20068;-57
2023/03/24 03:08:34;;;;;;;5.55;5.10;;;;;;;;;;4194439;28;20278;-58
2023/03/24 03:10:56;;;;;;;5.22;5.03;;;;;;;;;;4191510;28;20044;-58
2023/03/24 03:13:29;;;;;;;6.15;6.05;;;;;;;;;;4193955;28;20051;-57
2023/03/24 03:15:53;;;;;;;6.40;6.13;;;;;;;;;;4196038;28;20232;-58
2023/03/24 03:18:32;;;;;;;6.65;6.32;;;;;;;;;;4191875;28;20228;-57
2023/03/24 03:20:56;;;;;;;6.35;6.15;;;;;;;;;;4192684;28;20035;-58
2023/03/24 03:23:18;;;;;;;7.35;7.03;;;;;;;;;;4194656;28;20086;-58
2023/03/24 03:25:41;;;;;;;5.47;5.38;;;;;;;;;;4191179;28;20418;-58
2023/03/24 03:28:02;;;;;;;6.68;6.35;;;;;;;;;;4192301;28;20063;-58
2023/03/24 03:30:25;;;;;;;8.10;7.63;;;;;;;;;;4193422;28;20071;-58
2023/03/24 03:32:53;;;;;;;7.13;6.85;;;;;;;;;;4191493;28;20112;-58
2023/03/24 03:35:21;;;;;;;8.15;7.45;;;;;;;;;;4193693;28;20083;-58
2023/03/24 03:37:47;;;;;;;6.18;6.07;;;;;;;;;;4190570;28;20040;-58
2023/03/24 03:40:11;;;;;;;7.38;7.28;;;;;;;;;;4191545;28;20370;-58
2023/03/24 03:42:31;;;;;;;6.97;6.78;;;;;;;;;;4193398;28;20078;-58
2023/03/24 03:44:52;;;;;;;7.07;6.65;;;;;;;;;;4193479;28;20052;-58
2023/03/24 03:47:14;;;;;;;7.63;7.00;;;;;;;;;;4191146;28;20048;-58
2023/03/24 03:49:35;;;;;;;6.55;6.38;;;;;;;;;;4190961;28;20060;-58
2023/03/24 03:51:56;;;;;;;5.00;4.90;;;;;;;;;;4193119;28;20090;-58
2023/03/24 03:54:16;;;;;;;5.35;5.25;;;;;;;;;;4190747;28;20079;-58
2023/03/24 03:56:37;;;;;;;7.53;7.13;;;;;;;;;;4190196;28;20048;-58
2023/03/24 03:58:57;;;;;;;6.68;6.57;;;;;;;;;;4190468;28;20040;-58
2023/03/24 04:01:19;;;;;;;7.35;6.88;;;;;;;;;;4190973;28;20075;-58
2023/03/24 04:03:45;;;;;;;7.77;7.33;;;;;;;;;;4190846;28;20044;-58
2023/03/24 04:06:07;;;;;;;6.45;6.25;;;;;;;;;;4192470;28;20040;-59
2023/03/24 04:08:37;;;;;;;6.00;5.85;;;;;;;;;;4182829;28;20105;-57
2023/03/24 04:11:00;;;;;;;6.35;6.25;;;;;;;;;;4189785;28;20048;-58
2023/03/24 04:13:20;;;;;;;;;;;;;;;;;;4190151;28;20377;-58
2023/03/24 04:15:45;;;;;;;7.03;6.82;;;;;;;;;;4192280;28;19924;-58
2023/03/24 04:18:10;;;;;;;6.25;6.05;;;;;;;;;;4191696;28;20051;-58
2023/03/24 04:20:45;;;;;;;7.25;6.88;;;;;;;;;;4191751;28;20272;-58
2023/03/24 04:23:13;;;;;;;6.25;6.15;;;;;;;;;;4191102;28;20047;-58
2023/03/24 04:25:35;;;;;;;7.05;6.95;;;;;;;;;;4191676;28;20232;-58
2023/03/24 04:28:01;;;;;;;5.85;5.75;;;;;;;;;;4192056;28;20091;-58
2023/03/24 04:30:26;;;;;;;5.90;5.70;;;;;;;;;;4191916;28;20075;-58
2023/03/24 04:33:07;;;;;;;6.95;6.75;;;;;;;;;;4191263;28;20371;-58
2023/03/24 04:35:30;;;;;;;7.53;7.28;;;;;;;;;;4192434;28;20089;-58
2023/03/24 04:37:50;;;;;;;;;;;;;;;;;;4191913;28;20067;-58
2023/03/24 04:40:13;;;;;;;6.90;6.78;;;;;;;;;;4190666;28;19923;-58
2023/03/24 04:42:36;;;;;;;7.15;6.72;;;;;;;;;;4192217;28;20331;-58
2023/03/24 04:44:57;;;;;;;6.87;6.67;;;;;;;;;;4194501;28;20078;-58
2023/03/24 04:47:19;;;;;;;10.80;7.20;;;;;;;;;;4191964;28;20059;-58
2023/03/24 04:49:40;;;;;;;6.18;5.75;;;;;;;;;;4202889;28;20171;-58
2023/03/24 04:52:00;;;;;;;6.07;5.97;;;;;;;;;;4192911;28;20051;-58
2023/03/24 04:54:21;;;;;;;5.95;5.85;;;;;;;;;;4192076;28;20040;-58
2023/03/24 04:56:47;;;;;;;5.93;5.82;;;;;;;;;;4190027;28;20047;-58
2023/03/24 04:59:07;;;;;;;5.95;5.75;;;;;;;;;;4191264;28;20358;-58
2023/03/24 05:01:29;;;;;;;5.43;5.13;;;;;;;;;;4193318;28;20091;-58
2023/03/24 05:03:50;;;;;;;7.50;7.25;;;;;;;;;;4190644;28;20370;-58
2023/03/24 05:06:11;;;;;;;7.10;7.00;;;;;;;;;;4193482;28;20044;-57
2023/03/24 05:08:32;;;;;;;7.47;7.10;;;;;;;;;;4194777;28;20184;-58
2023/03/24 05:10:52;;;;;;;7.55;7.03;;;;;;;;;;4191956;28;20078;-58
2023/03/24 05:13:12;;;;;;;6.50;6.22;;;;;;;;;;4188156;28;20047;-58
2023/03/24 05:15:33;;;;;;;6.75;6.65;;;;;;;;;;4193429;28;20059;-58
2023/03/24 05:17:53;;;;;;;7.28;7.15;;;;;;;;;;4189848;28;20082;-57
2023/03/24 05:20:14;;;;;;;6.03;5.93;;;;;;;;;;4190246;28;20365;-58
2023/03/24 05:22:34;;;;;;;7.50;7.40;;;;;;;;;;4190589;28;20228;-57
2023/03/24 05:24:54;;;;;;;7.55;7.38;;;;;;;;;;4190591;28;20043;-58
2023/03/24 05:27:14;;;;;;;7.35;7.03;;;;;;;;;;4190574;28;20106;-58
2023/03/24 05:29:34;;;;;;;7.43;7.30;;;;;;;;;;4191082;28;20232;-58
2023/03/24 05:31:55;;;;;;;6.82;6.53;;;;;;;;;;4191154;28;20048;-57
2023/03/24 05:34:15;;;;;;;6.93;6.78;;;;;;;;;;4190801;28;20044;-57
2023/03/24 05:36:35;;;;;;;6.15;5.90;;;;;;;;;;4190825;28;20051;-58
2023/03/24 05:38:55;;;;;;;6.45;6.20;;;;;;;;;;4189641;28;20040;-57
2023/03/24 05:41:15;;;;;;;6.82;6.57;;;;;;;;;;4190646;28;20045;-57
2023/03/24 05:43:35;;;;;;;7.00;6.75;;;;;;;;;;4190748;28;20060;-58
2023/03/24 05:45:56;;;;;;;5.68;5.57;;;;;;;;;;4191840;28;20051;-57
2023/03/24 05:48:16;;;;;;;7.95;7.63;;;;;;;;;;4191298;28;20436;-58
2023/03/24 05:50:37;;;;;;;8.70;8.30;;;;;;;;;;4190078;28;20243;-58
2023/03/24 05:52:57;;;;;;;7.80;7.60;;;;;;;;;;4188890;28;20108;-58
2023/03/24 05:55:18;;;;;;;7.95;7.85;;;;;;;;;;4189993;28;20059;-58
2023/03/24 05:57:38;;;;;;;7.95;7.75;;;;;;;;;;4189206;28;20147;-57
2023/03/24 05:59:59;;;;;;;7.03;6.75;;;;;;;;;;4192897;28;20069;-58
2023/03/24 06:02:20;;;;;;;7.03;6.93;;;;;;;;;;4188983;28;20108;-58
2023/03/24 06:04:44;;;;;;;5.57;5.38;;;;;;;;;;4189972;28;20048;-58
2023/03/24 06:07:04;;;;;;;6.65;6.55;;;;;;;;;;4191400;28;20071;-58
2023/03/24 06:09:31;;;;;;;6.47;6.28;;;;;;;;;;4193853;28;20039;-58
2023/03/24 06:11:51;;;;;;;5.70;5.53;;;;;;;;;;4190259;28;20374;-58
2023/03/24 06:14:11;;;;;;;20.58;14.82;;;;;;;;;;4190641;28;20052;-58
2023/03/24 06:16:32;;;;;;;9.70;8.93;;;;;;;;;;4193400;28;20288;-57
2023/03/24 06:18:53;;;;;;;8.07;7.68;;;;;;;;;;4194570;28;20071;-57
2023/03/24 06:21:17;;;;;;;6.70;6.50;;;;;;;;;;4189802;28;20174;-59
2023/03/24 06:23:37;;;;;;;7.28;7.03;;;;;;;;;;4191900;28;20063;-59
2023/03/24 06:26:00;;;;;;;5.88;5.57;;;;;;;;;;4195136;28;20052;-58
2023/03/24 06:28:20;;;;;;;7.68;7.10;;;;;;;;;;4190992;28;20051;-59
2023/03/24 06:30:43;;;;;;;6.28;5.88;;;;;;;;;;4192514;28;20067;-58
2023/03/24 06:33:03;;;;;;;5.60;5.40;;;;;;;;;;4195129;28;20056;-59
2023/03/24 06:35:25;;;;;;;5.93;5.82;;;;;;;;;;4192338;28;20044;-59
2023/03/24 06:37:46;;;;;;;5.63;5.50;;;;;;;;;;4194106;28;20385;-59
2023/03/24 06:40:09;;;;;;;5.93;5.75;;;;;;;;;;4191588;28;20067;-59
2023/03/24 06:42:29;;;;;;;6.88;6.57;;;;;;;;;;4192064;28;20076;-58
2023/03/24 06:44:50;;;;;;;6.63;6.43;;;;;;;;;;4192181;28;20063;-58
2023/03/24 06:47:10;;;;;;;6.53;6.43;;;;;;;;;;4192311;28;20048;-59
2023/03/24 06:49:31;;;;;;;5.57;5.35;;;;;;;;;;4192137;28;20409;-59
2023/03/24 06:51:51;;;;;;;8.20;7.78;;;;;;;;;;4192448;28;20043;-59
2023/03/24 06:54:11;;;;;;;7.68;7.13;;;;;;;;;;4192279;28;20115;-59
2023/03/24 06:56:33;;;;;;;8.43;5.80;;;;;;;;;;4190496;28;20437;-59
2023/03/24 06:58:53;;;;;;;5.93;5.63;;;;;;;;;;4193045;28;20052;-59
2023/03/24 07:01:13;;;;;;;8.20;6.38;;;;;;;;;;4193501;28;20064;-59
2023/03/24 07:03:34;;;;;;;6.22;5.88;;;;;;;;;;4193699;28;20064;-59
2023/03/24 07:05:56;;;;;;;7.13;6.53;;;;;;;;;;4189645;28;20044;-59
2023/03/24 07:08:16;;;;;;;5.60;5.45;;;;;;;;;;4193954;28;20056;-59
2023/03/24 07:10:56;;;;;;;5.05;4.85;;;;;;;;;;4193076;28;20048;-59
2023/03/24 07:13:16;;;;;;;8.80;6.32;;;;;;;;;;4192962;28;20150;-59
2023/03/24 07:15:36;;;;;;;7.15;6.78;;;;;;;;;;4191080;28;20052;-59
2023/03/24 07:17:57;;;;;;;6.38;6.22;;;;;;;;;;4195186;28;20398;-58
2023/03/24 07:20:19;;;;;;;7.25;6.88;;;;;;;;;;4193415;28;20087;-59
2023/03/24 07:22:39;;;;;;;8.50;7.57;;;;;;;;;;4192785;28;20067;-58
2023/03/24 07:25:03;;;;;;;7.20;6.75;;;;;;;;;;4193797;28;20120;-59
2023/03/24 07:27:23;;;;;;;5.85;5.55;;;;;;;;;;4194307;28;20056;-59
2023/03/24 07:29:44;;;;;;;7.50;6.80;;;;;;;;;;4193124;28;20040;-58
2023/03/24 07:32:04;;;;;;;6.47;6.32;;;;;;;;;;4190416;28;20052;-59
2023/03/24 07:34:25;;;;;;;6.22;5.45;;;;;;;;;;4193344;28;20086;-59
2023/03/24 07:36:46;;;;;;;7.53;7.32;;;;;;;;;;4191097;28;20688;-59
2023/03/24 07:39:08;;;;;;;7.72;7.18;;;;;;;;;;4194158;28;20064;-58
2023/03/24 07:41:28;;;;;;;5.70;5.50;;;;;;;;;;4189907;28;20048;-58
2023/03/24 07:43:48;;;;;;;6.68;6.10;;;;;;;;;;4191744;28;20052;-58
2023/03/24 07:46:08;;;;;;;5.72;5.18;;;;;;;;;;4193654;28;20048;-59
2023/03/24 07:48:30;;;;;;;5.90;5.75;;;;;;;;;;4192324;28;20366;-58
2023/03/24 07:50:52;;;;;;;6.28;6.07;;;;;;;;;;4194919;28;20114;-58
2023/03/24 07:53:17;;;;;;;5.90;5.70;;;;;;;;;;4193483;28;20044;-58
2023/03/24 07:55:37;;;;;;;5.28;5.18;;;;;;;;;;4195275;28;20139;-59
2023/03/24 07:57:58;;;;;;;4.78;4.65;;;;;;;;;;4189165;28;20044;-58
2023/03/24 08:00:23;;;;;;;4.25;3.95;;;;;;;;;;4192984;28;20052;-58
2023/03/24 08:02:44;;;;;;;5.07;4.82;;;;;;;;;;4194915;28;20036;-59
2023/03/24 08:05:05;;;;;;;4.53;4.43;;;;;;;;;;4196098;28;20055;-59
2023/03/24 08:07:25;;;;;;;5.35;5.22;;;;;;;;;;4189857;28;20104;-59
2023/03/24 08:09:45;;;;;;;6.03;5.63;;;;;;;;;;4188757;28;20075;-59
2023/03/24 08:12:06;;;;;;;8.90;5.70;;;;;;;;;;4191238;28;20048;-59
2023/03/24 08:14:39;;;;;;;7.15;6.95;;;;;;;;;;4191288;28;20113;-58
2023/03/24 08:17:00;;;;;;;7.13;6.93;;;;;;;;;;4190009;28;20079;-58
2023/03/24 08:19:20;;;;;;;7.60;7.00;;;;;;;;;;4191457;28;20469;-59
2023/03/24 08:21:40;;;;;;;4.72;4.63;;;;;;;;;;4190815;28;20067;-59
2023/03/24 08:24:00;;;;;;;5.65;5.55;;;;;;;;;;4190561;28;20039;-59
2023/03/24 08:26:21;;;;;;;5.40;5.00;;;;;;;;;;4190448;28;20063;-58
2023/03/24 08:28:41;;;;;;;6.63;6.47;;;;;;;;;;4191442;28;20043;-59
2023/03/24 08:31:01;;;;;;;5.10;4.90;;;;;;;;;;4192613;28;20095;-59
2023/03/24 08:33:22;;;;;;;5.00;4.80;;;;;;;;;;4191824;28;20267;-59
2023/03/24 08:35:44;;;;;;;7.03;5.20;;;;;;;;;;4190781;28;20052;-59
2023/03/24 08:38:05;;;;;;;5.78;5.47;;;;;;;;;;4191613;28;20087;-58
2023/03/24 08:40:28;;;;;;;5.60;5.32;;;;;;;;;;4192159;28;20079;-59
2023/03/24 08:42:53;;;;;;;6.45;6.30;;;;;;;;;;4191552;28;20071;-59
2023/03/24 08:45:13;;;;;;;7.82;7.30;;;;;;;;;;4191772;28;20079;-59
2023/03/24 08:47:33;;;;;;;7.35;6.95;;;;;;;;;;4192128;28;20052;-59
2023/03/24 08:49:56;;;;;;;6.22;5.93;;;;;;;;;;4191139;28;20060;-59
2023/03/24 08:52:17;;;;;;;6.75;6.45;;;;;;;;;;4190246;28;20091;-59
2023/03/24 08:54:37;;;;;;;6.95;6.45;;;;;;;;;;4191864;28;20078;-59
2023/03/24 08:56:57;;;;;;;7.35;7.03;;;;;;;;;;4192849;28;20047;-59
2023/03/24 08:59:18;;;;;;;6.78;6.38;;;;;;;;;;4188577;28;20048;-59
2023/03/24 09:01:38;;;;;;;6.18;5.80;;;;;;;;;;4191013;28;20244;-59
2023/03/24 09:03:58;;;;;;;5.90;5.38;;;;;;;;;;4191616;28;20040;-58
2023/03/24 09:06:18;;;;;;;6.32;5.95;;;;;;;;;;4194237;28;20059;-59
2023/03/24 09:08:39;;;;;;;7.63;7.03;;;;;;;;;;4191792;28;20048;-59
2023/03/24 09:10:59;;;;;;;5.32;4.85;;;;;;;;;;4191852;28;20287;-58
2023/03/24 09:13:20;;;;;;;5.85;5.53;;;;;;;;;;4192447;28;20107;-59
2023/03/24 09:15:45;;;;;;;6.22;6.03;;;;;;;;;;4190312;28;20044;-59
2023/03/24 09:18:05;;;;;;;4.50;4.30;;;;;;;;;;4192065;28;20087;-59
2023/03/24 09:20:27;;;;;;;5.68;5.45;;;;;;;;;;4189802;28;20106;-59
2023/03/24 09:22:47;;;;;;;5.22;4.82;;;;;;;;;;4190944;28;20359;-59
2023/03/24 09:25:08;;;;;;;5.18;5.05;;;;;;;;;;4190332;28;20147;-59
2023/03/24 09:27:28;;;;;;;5.18;4.95;;;;;;;;;;4192176;28;20039;-59
2023/03/24 09:29:52;;;;;;;4.78;4.68;;;;;;;;;;4190305;28;20239;-58
2023/03/24 09:32:13;;;;;;;5.93;5.72;;;;;;;;;;4192695;28;20044;-59
2023/03/24 09:34:33;;;;;;;3.72;3.63;;;;;;;;;;4188511;28;20094;-58
2023/03/24 09:36:53;;;;;;;5.03;4.45;;;;;;;;;;4189924;28;20047;-59
2023/03/24 09:39:13;;;;;;;3.95;3.75;;;;;;;;;;4188663;28;20036;-58
2023/03/24 09:41:34;;;;;;;3.80;3.70;;;;;;;;;;4189442;28;20080;-59
2023/03/24 09:43:55;;;;;;;4.93;4.82;;;;;;;;;;4188841;28;20064;-59
2023/03/24 09:46:26;;;;;;;5.43;5.22;;;;;;;;;;4191087;28;20270;-59
2023/03/24 09:48:49;;;;;;;7.28;4.00;;;;;;;;;;4190333;28;20454;-59
2023/03/24 09:51:12;;;;;;;3.50;3.30;;;;;;;;;;4190664;28;20621;-59
2023/03/24 09:53:53;;;;;;;2.78;2.58;;;;;;;;;;4189371;28;20094;-59
2023/03/24 09:56:14;;;;;;;2.13;1.90;;;;;;;;;;4185292;28;20170;-59
2023/03/24 09:58:35;;;;;;;2.03;1.92;;;;;;;;;;4189942;28;20042;-58
2023/03/24 10:00:55;;;;;;;4.22;2.15;;;;;;;;;;4189751;28;20383;-59
2023/03/24 10:03:21;;;;;;;3.13;2.90;;;;;;;;;;4191118;28;20060;-59
2023/03/24 10:05:49;;;;;;;3.25;3.15;;;;;;;;;;4190073;28;20047;-59
2023/03/24 10:08:17;;;;;;;4.32;1.73;;;;;;;;;;4191326;28;20047;-59
2023/03/24 10:10:41;;;;;;;1.50;1.40;;;;;;;;;;4191727;28;20090;-59
2023/03/24 10:13:12;;;;;;;1.40;1.40;;;;;;;;;;4192140;28;20328;-59
2023/03/24 10:15:38;;;;;;;1.20;1.10;;;;;;;;;;4189796;28;20239;-59
2023/03/24 10:18:10;;;;;;;2.97;1.80;;;;;;;;;;4189630;28;20379;-59
2023/03/24 10:20:49;;;;;;;1.90;1.90;;;;;;;;;;4192327;28;20048;-59
2023/03/24 10:23:15;;;;;;;1.48;1.48;;;;;;;;;;4191632;28;20113;-59
2023/03/24 10:25:44;;;;;;;2.72;2.25;;;;;;;;;;4190263;28;20051;-59
2023/03/24 10:28:22;;;;;;;2.13;2.03;;;;;;;;;;4191480;28;20051;-59
2023/03/24 10:30:43;;;;;;;1.80;1.80;;;;;;;;;;4191721;28;20040;-59
2023/03/24 10:33:05;;;;;;;;;;;;;;;;;;4190788;28;20087;-58
2023/03/24 10:35:38;;;;;;;1.85;1.80;;;;;;;;;;4190432;28;20275;-59
2023/03/24 10:38:00;;;;;;;1.95;1.52;;;;;;;;;;4190432;28;20090;-58
2023/03/24 10:40:24;;;;;;;1.77;1.52;;;;;;;;;;4189686;28;20379;-59
2023/03/24 10:42:45;;;;;;;2.08;1.63;;;;;;;;;;4189109;28;20251;-59
2023/03/24 10:45:06;;;;;;;2.05;1.95;;;;;;;;;;4190171;28;20043;-58
2023/03/24 10:47:28;;;;;;;1.92;1.92;;;;;;;;;;4191191;28;20052;-59
2023/03/24 10:49:53;;;;;;;2.70;2.60;;;;;;;;;;4190788;28;20240;-58
2023/03/24 10:52:14;;;;;;;1.98;1.88;;;;;;;;;;4190348;28;20044;-59
2023/03/24 10:54:35;;;;;;;2.22;2.15;;;;;;;;;;4190474;28;20044;-59
2023/03/24 10:56:59;;;;;;;1.88;1.85;;;;;;;;;;4192652;28;20039;-59
2023/03/24 10:59:26;;;;;;;2.25;2.20;;;;;;;;;;4188861;28;20102;-59
2023/03/24 11:01:46;;;;;;;2.65;2.55;;;;;;;;;;4188831;28;20044;-59
2023/03/24 11:04:07;;;;;;;2.00;2.00;;;;;;;;;;4188588;28;20036;-59
2023/03/24 11:06:27;;;;;;;2.25;1.73;;;;;;;;;;4187569;28;20048;-59
2023/03/24 11:08:47;;;;;;;3.83;2.28;;;;;;;;;;4186300;28;20052;-59
2023/03/24 11:11:27;;;;;;;2.38;1.95;;;;;;;;;;4192737;28;20051;-59
2023/03/24 11:13:55;;;;;;;2.35;2.08;;;;;;;;;;4192232;28;20375;-59
2023/03/24 11:16:16;;;;;;;2.60;2.45;;;;;;;;;;4191900;28;20251;-58
2023/03/24 11:18:37;;;;;;;1.88;1.88;;;;;;;;;;4192512;28;20072;-59
2023/03/24 11:20:59;;;;;;;1.50;1.50;;;;;;;;;;4192762;28;20086;-58
2023/03/24 11:23:20;;;;;;;2.22;2.10;;;;;;;;;;4192443;28;20043;-59
2023/03/24 11:25:42;;;;;;;1.60;1.50;;;;;;;;;;4192318;28;20366;-59
2023/03/24 11:28:07;;;;;;;1.60;1.60;;;;;;;;;;4192486;28;20052;-58
2023/03/24 11:30:32;;;;;;;2.35;1.95;;;;;;;;;;4194467;28;20044;-59
2023/03/24 11:32:54;;;;;;;1.90;1.80;;;;;;;;;;4192323;28;20083;-59
2023/03/24 11:35:17;;;;;;;1.90;1.80;;;;;;;;;;4191630;28;20083;-58
2023/03/24 11:37:40;;;;;;;1.75;1.65;;;;;;;;;;4193942;28;20087;-59
2023/03/24 11:40:13;;;;;;;1.60;1.60;;;;;;;;;;4190225;28;20084;-59
2023/03/24 11:42:33;;;;;;;1.58;1.48;;;;;;;;;;4194105;28;20235;-58
2023/03/24 11:44:55;;;;;;;1.40;1.30;;;;;;;;;;4190643;28;20297;-59
2023/03/24 11:47:24;;;;;;;1.92;1.92;;;;;;;;;;4192054;28;20086;-59
2023/03/24 11:50:00;;;;;;;1.30;1.20;;;;;;;;;;4194692;28;20155;-59
2023/03/24 11:52:27;;;;;;;1.77;1.40;;;;;;;;;;4191246;28;20044;-59
2023/03/24 11:54:47;;;;;;;1.20;1.20;;;;;;;;;;4190744;28;20382;-59
2023/03/24 11:57:11;;;;;;;1.35;1.30;;;;;;;;;;4193997;28;20048;-59
2023/03/24 11:59:51;;;;;;;1.33;1.00;;;;;;;;;;4195388;28;20040;-58
2023/03/24 12:02:31;;;;;;;1.77;1.17;;;;;;;;;;4191743;28;20052;-59
2023/03/24 12:05:01;;;;;;;1.45;1.30;;;;;;;;;;4193562;28;20043;-58
2023/03/24 12:07:27;;;;;;;1.20;1.10;;;;;;;;;;4193942;28;20116;-59
2023/03/24 12:10:06;;;;;;;1.10;1.10;;;;;;;;;;4189170;28;20051;-59
2023/03/24 12:12:26;;;;;;;1.10;1.10;;;;;;;;;;4192443;28;20378;-59
2023/03/24 12:14:52;;;;;;;1.20;1.10;;;;;;;;;;4194096;28;20044;-59
2023/03/24 12:17:14;;;;;;;1.05;1.05;;;;;;;;;;4192208;28;20043;-59
2023/03/24 12:19:42;;;;;;;1.20;1.10;;;;;;;;;;4191401;28;20111;-59
2023/03/24 12:22:01;;;;;;;1.10;1.00;;;;;;;;;;4192560;28;20063;-59
2023/03/24 12:24:31;;;;;;;1.00;1.00;;;;;;;;;;4192010;28;20036;-58
2023/03/24 12:26:54;;;;;;;1.30;1.30;;;;;;;;;;4190614;28;20371;-58
2023/03/24 12:29:25;;;;;;;1.17;1.08;;;;;;;;;;4189990;28;20056;-59
2023/03/24 12:31:45;;;;;;;1.20;1.20;;;;;;;;;;4191270;28;20048;-58
2023/03/24 12:34:05;;;;;;;1.13;1.10;;;;;;;;;;4191002;28;20064;-58
2023/03/24 12:36:44;;;;;;;1.25;1.10;;;;;;;;;;4191348;28;20055;-59
2023/03/24 12:39:08;;;;;;;1.00;1.00;;;;;;;;;;4190207;28;20086;-59
2023/03/24 12:41:32;;;;;;;1.00;1.00;;;;;;;;;;4191143;28;20094;-59
2023/03/24 12:44:18;;;;;;;1.27;1.27;;;;;;;;;;4192283;28;20378;-57
2023/03/24 12:46:50;;;;;;;1.67;1.00;;;;;;;;;;4191878;28;20099;-57
2023/03/24 12:49:14;;;;;;;0.90;0.90;;;;;;;;;;4191952;28;20091;-56
2023/03/24 12:51:41;;;;;;;1.10;1.10;;;;;;;;;;4192700;28;20362;-57
2023/03/24 12:54:22;;;;;;;1.00;1.00;;;;;;;;;;4190204;28;20047;-57
2023/03/24 12:56:45;;;;;;;1.10;1.10;;;;;;;;;;4190720;28;20243;-57
2023/03/24 12:59:29;;;;;;;2.35;1.00;;;;;;;;;;4192830;28;20082;-57
2023/03/24 13:01:55;;;;;;;0.80;0.80;;;;;;;;;;4190752;28;20044;-57
2023/03/24 13:04:17;;;;;;;0.82;0.80;;;;;;;;;;4191685;28;20043;-57
2023/03/24 13:06:44;;;;;;;0.88;0.88;;;;;;;;;;4191508;28;20362;-57
2023/03/24 13:09:06;;;;;;;1.45;0.82;;;;;;;;;;4205299;28;20047;-57
2023/03/24 13:11:31;;;;;;;0.80;0.80;;;;;;;;;;4189214;28;20354;-58
2023/03/24 13:13:55;;;;;;;0.80;0.80;;;;;;;;;;4191681;28;20044;-57
2023/03/24 13:16:18;;;;;;;1.45;1.08;;;;;;;;;;4191935;28;20151;-57
2023/03/24 13:18:58;;;;;;;0.88;0.88;;;;;;;;;;4190595;28;20083;-57
2023/03/24 13:21:20;;;;;;;0.98;0.98;;;;;;;;;;4191758;28;20051;-57
2023/03/24 13:23:43;;;;;;;1.15;1.15;;;;;;;;;;4189338;28;20243;-57
2023/03/24 13:26:03;;;;;;;1.05;0.90;;;;;;;;;;4190115;28;20394;-57
2023/03/24 13:28:27;;;;;;;1.15;1.15;;;;;;;;;;4191357;28;20104;-57
2023/03/24 13:30:49;;;;;;;1.55;0.90;;;;;;;;;;4192319;28;20040;-57
2023/03/24 13:33:15;;;;;;;1.48;0.90;;;;;;;;;;4189120;28;20087;-57
2023/03/24 13:35:54;;;;;;;0.95;0.95;;;;;;;;;;4192317;28;20056;-57
2023/03/24 13:38:30;;;;;;;0.90;0.90;;;;;;;;;;4191092;28;20051;-57
2023/03/24 13:40:52;;;;;;;1.02;1.02;;;;;;;;;;4191724;28;20063;-58
2023/03/24 13:43:16;;;;;;;0.90;0.90;;;;;;;;;;4190541;28;20110;-58
2023/03/24 13:45:46;;;;;;;1.85;0.90;;;;;;;;;;4191782;28;20055;-58
2023/03/24 13:48:10;;;;;;;0.90;0.90;;;;;;;;;;4190568;28;20106;-57
2023/03/24 13:50:31;;;;;;;1.58;0.90;;;;;;;;;;4190417;28;20127;-57
2023/03/24 13:52:51;;;;;;;0.80;0.80;;;;;;;;;;4189623;28;20044;-57
2023/03/24 13:55:20;;;;;;;1.63;0.85;;;;;;;;;;4189554;28;20044;-57
2023/03/24 13:57:42;;;;;;;1.45;1.45;;;;;;;;;;4190052;28;20086;-58
2023/03/24 14:00:10;;;;;;;0.90;0.90;;;;;;;;;;4189266;28;20041;-58
2023/03/24 14:02:31;;;;;;;1.10;1.10;;;;;;;;;;4189535;28;20055;-58
2023/03/24 14:05:00;;;;;;;0.90;0.90;;;;;;;;;;4190737;28;20040;-58
2023/03/24 14:07:33;;;;;;;1.10;0.90;;;;;;;;;;4190310;28;20059;-58
2023/03/24 14:10:00;;;;;;;2.60;0.90;;;;;;;;;;4189006;28;20078;-58
2023/03/24 14:12:20;;;;;;;1.35;0.90;;;;;;;;;;4187866;28;20300;-58
2023/03/24 14:15:00;;;;;;;0.95;0.95;;;;;;;;;;4190990;28;20124;-58
2023/03/24 14:17:21;;;;;;;1.88;0.90;;;;;;;;;;4190457;28;20040;-58
2023/03/24 14:19:41;;;;;;;0.80;0.80;;;;;;;;;;4190111;28;20044;-58
2023/03/24 14:22:15;;;;;;;0.90;0.90;;;;;;;;;;4191123;28;20063;-58